Gran Canaria - Aeropuerto en Canarias

latitud = 27° 55' 4''N | longitud = 015° 23' 43''W
32 metros sobre el nivel del mar |

Fecha, hora, temperatura, viento dirección y velocidad, humedad y presión.

  • 22-09-2018 23:00:00 | 23.40°C | Norte |32.00 km/h | 71.00% | 1012.40 hPa
  • 22-09-2018 22:00:00 | 23.40°C | Norte |28.00 km/h | 74.00% | 1012.20 hPa
  • 22-09-2018 21:00:00 | 23.50°C | Norte |30.00 km/h | 75.00% | 1011.60 hPa
  • 22-09-2018 20:00:00 | 23.90°C | Norte |32.00 km/h | 72.00% | 1010.90 hPa
  • 22-09-2018 19:00:00 | 24.90°C | Norte |32.00 km/h | 68.00% | 1010.90 hPa
  • 22-09-2018 18:00:00 | 25.40°C | Norte |34.00 km/h | 64.00% | 1010.80 hPa
  • 22-09-2018 17:00:00 | 26.50°C | Norte |34.00 km/h | 61.00% | 1010.30 hPa
  • 22-09-2018 16:00:00 | 27.20°C | Norte |43.00 km/h | 60.00% | 1010.30 hPa
  • 22-09-2018 15:00:00 | 26.90°C | Norte |41.00 km/h | 59.00% | 1011.00 hPa
  • 22-09-2018 14:00:00 | 26.40°C | Norte |39.00 km/h | 61.00% | 1011.80 hPa
  • 22-09-2018 13:00:00 | 26.70°C | Norte |41.00 km/h | 61.00% | 1012.40 hPa
  • 22-09-2018 12:00:00 | 26.00°C | Norte |35.00 km/h | 61.00% | 1012.80 hPa
  • 22-09-2018 11:00:00 | 25.40°C | Norte |39.00 km/h | 63.00% | 1012.80 hPa
  • 22-09-2018 10:00:00 | 24.40°C | Norte |24.00 km/h | 64.00% | 1012.40 hPa
  • 22-09-2018 09:00:00 | 22.30°C | Norte |15.00 km/h | 72.00% | 1012.10 hPa
  • 22-09-2018 08:00:00 | 22.10°C | Norte |16.00 km/h | 75.00% | 1011.90 hPa
  • 22-09-2018 07:00:00 | 22.10°C | Norte |18.00 km/h | 74.00% | 1011.30 hPa
  • 22-09-2018 06:00:00 | 22.10°C | Norte |21.00 km/h | 74.00% | 1010.70 hPa
  • 22-09-2018 05:00:00 | 22.20°C | Norte |19.00 km/h | 73.00% | 1010.70 hPa
  • 22-09-2018 04:00:00 | 22.30°C | Norte |21.00 km/h | 72.00% | 1010.90 hPa
  • 22-09-2018 03:00:00 | 21.90°C | Norte |17.00 km/h | 74.00% | 1011.40 hPa
  • 22-09-2018 02:00:00 | 22.30°C | Norte |25.00 km/h | 76.00% | 1012.20 hPa
  • 22-09-2018 01:00:00 | 22.20°C | Norte |23.00 km/h | 77.00% | 1012.80 hPa
  • 22-09-2018 00:00:00 | 22.40°C | Norte |22.00 km/h | 78.00% | 1012.90 hPa